sensor_id;sensor_type;location;lat;lon;timestamp;pressure;altitude;pressure_sealevel;temperature;humidity
59859;BME280;45734;53.648;9.566;2022-11-18T00:00:29;100141.09;;;1.33;100.00
59859;BME280;45734;53.648;9.566;2022-11-18T00:05:30;100166.63;;;1.31;100.00
59859;BME280;45734;53.648;9.566;2022-11-18T00:10:30;100165.91;;;1.29;100.00
59859;BME280;45734;53.648;9.566;2022-11-18T00:15:30;100157.44;;;1.26;100.00
59859;BME280;45734;53.648;9.566;2022-11-18T00:20:32;100155.75;;;1.25;100.00
59859;BME280;45734;53.648;9.566;2022-11-18T00:25:33;100159.56;;;1.21;100.00
59859;BME280;45734;53.648;9.566;2022-11-18T00:30:33;100159.34;;;1.24;100.00
59859;BME280;45734;53.648;9.566;2022-11-18T00:35:33;100180.44;;;1.22;100.00
59859;BME280;45734;53.648;9.566;2022-11-18T00:40:34;100166.69;;;1.19;100.00
59859;BME280;45734;53.648;9.566;2022-11-18T00:45:34;100167.53;;;1.19;100.00
59859;BME280;45734;53.648;9.566;2022-11-18T00:50:34;100167.75;;;1.16;100.00
59859;BME280;45734;53.648;9.566;2022-11-18T00:55:34;100191.28;;;1.18;100.00
59859;BME280;45734;53.648;9.566;2022-11-18T01:00:35;100179.94;;;1.17;100.00
59859;BME280;45734;53.648;9.566;2022-11-18T01:05:36;100187.09;;;1.15;100.00
59859;BME280;45734;53.648;9.566;2022-11-18T01:10:38;100193.28;;;1.14;100.00
59859;BME280;45734;53.648;9.566;2022-11-18T01:15:42;100193.28;;;1.14;100.00
59859;BME280;45734;53.648;9.566;2022-11-18T01:20:43;100208.31;;;1.12;100.00
59859;BME280;45734;53.648;9.566;2022-11-18T01:25:46;100208.53;;;1.09;100.00
59859;BME280;45734;53.648;9.566;2022-11-18T01:30:47;100199.94;;;1.07;100.00
59859;BME280;45734;53.648;9.566;2022-11-18T01:35:47;100206.97;;;1.06;100.00
59859;BME280;45734;53.648;9.566;2022-11-18T01:40:47;100219.34;;;1.04;100.00
59859;BME280;45734;53.648;9.566;2022-11-18T01:45:50;100214.47;;;1.00;100.00
59859;BME280;45734;53.648;9.566;2022-11-18T01:50:55;100211.09;;;0.98;100.00
59859;BME280;45734;53.648;9.566;2022-11-18T01:55:56;100218.25;;;0.96;100.00
59859;BME280;45734;53.648;9.566;2022-11-18T02:00:59;100225.63;;;0.90;100.00
59859;BME280;45734;53.648;9.566;2022-11-18T02:06:01;100245.03;;;0.88;100.00
59859;BME280;45734;53.648;9.566;2022-11-18T02:11:03;100239.38;;;0.81;100.00
59859;BME280;45734;53.648;9.566;2022-11-18T02:16:12;100256.59;;;0.85;100.00
59859;BME280;45734;53.648;9.566;2022-11-18T02:32:23;100257.03;;;0.79;100.00
59859;BME280;45734;53.648;9.566;2022-11-18T02:37:38;100254.63;;;0.76;100.00
59859;BME280;45734;53.648;9.566;2022-11-18T02:42:43;100259.34;;;0.71;100.00
59859;BME280;45734;53.648;9.566;2022-11-18T02:47:46;100265.78;;;0.67;100.00
59859;BME280;45734;53.648;9.566;2022-11-18T02:52:49;100266.72;;;0.66;100.00
59859;BME280;45734;53.648;9.566;2022-11-18T02:57:52;100263.34;;;0.64;100.00
59859;BME280;45734;53.648;9.566;2022-11-18T03:02:52;100267.88;;;0.62;100.00
59859;BME280;45734;53.648;9.566;2022-11-18T03:07:56;100269.75;;;0.60;100.00
59859;BME280;45734;53.648;9.566;2022-11-18T03:13:12;100286.22;;;0.62;100.00
59859;BME280;45734;53.648;9.566;2022-11-18T03:18:31;100283.81;;;0.59;100.00
59859;BME280;45734;53.648;9.566;2022-11-18T03:23:43;100284.75;;;0.58;100.00
59859;BME280;45734;53.648;9.566;2022-11-18T03:29:09;100286.53;;;0.57;100.00
59859;BME280;45734;53.648;9.566;2022-11-18T03:34:18;100292.00;;;0.54;100.00
59859;BME280;45734;53.648;9.566;2022-11-18T03:39:21;100289.59;;;0.51;100.00
59859;BME280;45734;53.648;9.566;2022-11-18T03:44:26;100306.06;;;0.53;100.00
59859;BME280;45734;53.648;9.566;2022-11-18T03:49:32;100305.22;;;0.53;100.00
59859;BME280;45734;53.648;9.566;2022-11-18T03:54:36;100308.91;;;0.50;100.00
59859;BME280;45734;53.648;9.566;2022-11-18T03:59:43;100320.31;;;0.49;100.00
59859;BME280;45734;53.648;9.566;2022-11-18T04:04:47;100296.84;;;0.48;100.00
59859;BME280;45734;53.648;9.566;2022-11-18T04:15:16;100317.91;;;0.46;100.00
59859;BME280;45734;53.648;9.566;2022-11-18T04:20:21;100334.56;;;0.45;100.00
59859;BME280;45734;53.648;9.566;2022-11-18T04:25:22;100342.53;;;0.43;100.00
59859;BME280;45734;53.648;9.566;2022-11-18T04:30:23;100332.47;;;0.37;100.00
59859;BME280;45734;53.648;9.566;2022-11-18T04:35:24;100324.41;;;0.40;100.00
59859;BME280;45734;53.648;9.566;2022-11-18T04:40:25;100346.53;;;0.36;100.00
59859;BME280;45734;53.648;9.566;2022-11-18T04:45:25;100346.63;;;0.35;100.00
59859;BME280;45734;53.648;9.566;2022-11-18T04:50:25;100342.47;;;0.32;100.00
59859;BME280;45734;53.648;9.566;2022-11-18T04:55:26;100356.38;;;0.33;100.00
59859;BME280;45734;53.648;9.566;2022-11-18T05:00:26;100363.28;;;0.34;100.00
59859;BME280;45734;53.648;9.566;2022-11-18T05:05:26;100361.00;;;0.29;100.00
59859;BME280;45734;53.648;9.566;2022-11-18T05:10:27;100375.78;;;0.30;100.00
59859;BME280;45734;53.648;9.566;2022-11-18T05:15:27;100389.69;;;0.31;100.00
59859;BME280;45734;53.648;9.566;2022-11-18T05:20:27;100384.47;;;0.31;100.00
59859;BME280;45734;53.648;9.566;2022-11-18T05:25:28;100392.53;;;0.28;100.00
59859;BME280;45734;53.648;9.566;2022-11-18T05:30:28;100392.53;;;0.28;100.00
59859;BME280;45734;53.648;9.566;2022-11-18T05:35:28;100408.25;;;0.28;100.00
59859;BME280;45734;53.648;9.566;2022-11-18T05:40:28;100417.34;;;0.22;100.00
59859;BME280;45734;53.648;9.566;2022-11-18T05:45:29;100422.38;;;0.25;100.00
59859;BME280;45734;53.648;9.566;2022-11-18T05:50:30;100434.53;;;0.26;100.00
59859;BME280;45734;53.648;9.566;2022-11-18T05:55:37;100432.03;;;0.25;100.00
59859;BME280;45734;53.648;9.566;2022-11-18T06:00:39;100436.66;;;0.21;100.00
59859;BME280;45734;53.648;9.566;2022-11-18T06:05:39;100439.97;;;0.23;100.00
59859;BME280;45734;53.648;9.566;2022-11-18T06:10:40;100440.84;;;0.24;100.00
59859;BME280;45734;53.648;9.566;2022-11-18T06:15:42;100452.25;;;0.22;100.00
59859;BME280;45734;53.648;9.566;2022-11-18T06:20:44;100474.34;;;0.18;100.00
59859;BME280;45734;53.648;9.566;2022-11-18T06:25:44;100485.13;;;0.14;100.00
59859;BME280;45734;53.648;9.566;2022-11-18T06:30:45;100467.81;;;0.11;100.00
59859;BME280;45734;53.648;9.566;2022-11-18T06:35:45;100473.25;;;0.08;100.00
59859;BME280;45734;53.648;9.566;2022-11-18T06:40:46;100481.94;;;0.09;100.00
59859;BME280;45734;53.648;9.566;2022-11-18T06:45:46;100484.91;;;0.04;100.00
59859;BME280;45734;53.648;9.566;2022-11-18T06:51:06;100494.53;;;0.04;100.00
59859;BME280;45734;53.648;9.566;2022-11-18T06:56:09;100497.78;;;0.07;100.00
59859;BME280;45734;53.648;9.566;2022-11-18T07:01:20;100503.09;;;0.06;100.00
59859;BME280;45734;53.648;9.566;2022-11-18T07:06:25;100515.28;;;0.07;100.00
59859;BME280;45734;53.648;9.566;2022-11-18T07:11:27;100519.78;;;0.05;100.00
59859;BME280;45734;53.648;9.566;2022-11-18T07:16:28;100539.13;;;0.02;100.00
59859;BME280;45734;53.648;9.566;2022-11-18T07:21:28;100545.22;;;0.03;100.00
59859;BME280;45734;53.648;9.566;2022-11-18T07:26:28;100548.13;;;-0.02;100.00
59859;BME280;45734;53.648;9.566;2022-11-18T07:31:29;100565.63;;;-0.03;100.00
59859;BME280;45734;53.648;9.566;2022-11-18T07:36:29;100568.53;;;-0.07;100.00
59859;BME280;45734;53.648;9.566;2022-11-18T07:41:30;100572.94;;;-0.08;100.00
59859;BME280;45734;53.648;9.566;2022-11-18T07:46:32;100566.75;;;-0.07;100.00
59859;BME280;45734;53.648;9.566;2022-11-18T07:51:38;100584.16;;;-0.06;100.00
59859;BME280;45734;53.648;9.566;2022-11-18T07:56:39;100585.84;;;-0.05;100.00
59859;BME280;45734;53.648;9.566;2022-11-18T08:01:39;100600.41;;;-0.01;100.00
59859;BME280;45734;53.648;9.566;2022-11-18T08:06:40;100605.75;;;-0.02;100.00
59859;BME280;45734;53.648;9.566;2022-11-18T08:11:40;100620.50;;;-0.01;100.00
59859;BME280;45734;53.648;9.566;2022-11-18T08:16:40;100622.03;;;0.03;100.00
59859;BME280;45734;53.648;9.566;2022-11-18T08:21:40;100620.22;;;0.04;100.00
59859;BME280;45734;53.648;9.566;2022-11-18T08:26:41;100632.00;;;0.11;100.00
59859;BME280;45734;53.648;9.566;2022-11-18T08:31:41;100615.88;;;0.17;100.00
59859;BME280;45734;53.648;9.566;2022-11-18T08:36:41;100632.28;;;0.20;100.00
59859;BME280;45734;53.648;9.566;2022-11-18T08:41:42;100640.97;;;0.21;100.00
59859;BME280;45734;53.648;9.566;2022-11-18T08:46:43;100623.34;;;0.23;100.00
59859;BME280;45734;53.648;9.566;2022-11-18T08:51:44;100651.06;;;0.27;100.00
59859;BME280;45734;53.648;9.566;2022-11-18T08:56:45;100648.31;;;0.29;100.00
59859;BME280;45734;53.648;9.566;2022-11-18T09:01:45;100670.13;;;0.29;100.00
59859;BME280;45734;53.648;9.566;2022-11-18T09:06:46;100663.84;;;0.32;100.00
59859;BME280;45734;53.648;9.566;2022-11-18T09:11:46;100673.28;;;0.34;100.00
59859;BME280;45734;53.648;9.566;2022-11-18T09:16:46;100671.63;;;0.33;100.00
59859;BME280;45734;53.648;9.566;2022-11-18T09:21:46;100681.81;;;0.38;100.00
59859;BME280;45734;53.648;9.566;2022-11-18T09:26:47;100686.75;;;0.42;100.00
59859;BME280;45734;53.648;9.566;2022-11-18T09:31:48;100692.19;;;0.39;100.00
59859;BME280;45734;53.648;9.566;2022-11-18T09:36:49;100703.50;;;0.40;100.00
59859;BME280;45734;53.648;9.566;2022-11-18T09:52:23;100716.88;;;0.50;100.00
59859;BME280;45734;53.648;9.566;2022-11-18T09:57:46;100720.34;;;0.50;100.00
59859;BME280;45734;53.648;9.566;2022-11-18T10:03:02;100729.69;;;0.54;100.00
59859;BME280;45734;53.648;9.566;2022-11-18T10:18:50;100746.53;;;0.64;100.00
59859;BME280;45734;53.648;9.566;2022-11-18T10:23:58;100749.88;;;0.66;100.00
59859;BME280;45734;53.648;9.566;2022-11-18T10:28:59;100753.34;;;0.67;100.00
59859;BME280;45734;53.648;9.566;2022-11-18T10:34:00;100764.16;;;0.75;100.00
59859;BME280;45734;53.648;9.566;2022-11-18T10:39:09;100767.25;;;0.82;100.00
59859;BME280;45734;53.648;9.566;2022-11-18T10:49:37;100768.59;;;1.02;100.00
59859;BME280;45734;53.648;9.566;2022-11-18T10:54:38;100770.84;;;1.08;100.00
59859;BME280;45734;53.648;9.566;2022-11-18T10:59:41;100772.94;;;1.16;100.00
59859;BME280;45734;53.648;9.566;2022-11-18T11:04:47;100801.31;;;1.23;100.00
59859;BME280;45734;53.648;9.566;2022-11-18T11:15:15;100797.53;;;1.27;100.00
59859;BME280;45734;53.648;9.566;2022-11-18T11:20:22;100790.63;;;1.26;100.00
59859;BME280;45734;53.648;9.566;2022-11-18T11:25:31;100789.03;;;1.24;100.00
59859;BME280;45734;53.648;9.566;2022-11-18T11:31:24;100819.28;;;1.29;100.00
59859;BME280;45734;53.648;9.566;2022-11-18T11:36:20;100829.97;;;1.26;100.00
59859;BME280;45734;53.648;9.566;2022-11-18T11:42:03;100824.72;;;1.26;100.00
59859;BME280;45734;53.648;9.566;2022-11-18T11:47:34;100826.91;;;1.20;100.00
59859;BME280;45734;53.648;9.566;2022-11-18T11:58:15;100832.44;;;1.15;100.00
59859;BME280;45734;53.648;9.566;2022-11-18T12:08:55;100842.75;;;1.18;100.00
59859;BME280;45734;53.648;9.566;2022-11-18T12:19:11;100839.84;;;1.23;100.00
59859;BME280;45734;53.648;9.566;2022-11-18T12:24:25;100856.41;;;1.23;100.00
59859;BME280;45734;53.648;9.566;2022-11-18T12:29:41;100839.44;;;1.29;100.00
59859;BME280;45734;53.648;9.566;2022-11-18T12:34:43;100845.44;;;1.31;100.00
59859;BME280;45734;53.648;9.566;2022-11-18T12:44:46;100858.34;;;1.34;100.00
59859;BME280;45734;53.648;9.566;2022-11-18T12:50:05;100849.34;;;1.38;100.00
59859;BME280;45734;53.648;9.566;2022-11-18T12:55:21;100849.13;;;1.41;100.00
59859;BME280;45734;53.648;9.566;2022-11-18T13:05:26;100863.66;;;1.47;100.00
59859;BME280;45734;53.648;9.566;2022-11-18T13:10:29;100875.81;;;1.48;100.00
59859;BME280;45734;53.648;9.566;2022-11-18T13:15:30;100872.28;;;1.49;100.00
59859;BME280;45734;53.648;9.566;2022-11-18T13:20:54;100885.41;;;1.49;100.00
59859;BME280;45734;53.648;9.566;2022-11-18T13:26:05;100890.72;;;1.47;100.00
59859;BME280;45734;53.648;9.566;2022-11-18T13:36:52;100890.69;;;1.34;100.00
59859;BME280;45734;53.648;9.566;2022-11-18T13:42:04;100895.31;;;1.31;100.00
59859;BME280;45734;53.648;9.566;2022-11-18T13:53:00;100897.84;;;1.18;100.00
59859;BME280;45734;53.648;9.566;2022-11-18T14:08:43;100919.44;;;0.95;100.00
59859;BME280;45734;53.648;9.566;2022-11-18T14:13:50;100936.38;;;0.89;100.00
59859;BME280;45734;53.648;9.566;2022-11-18T14:18:51;100935.16;;;0.80;100.00
59859;BME280;45734;53.648;9.566;2022-11-18T14:23:51;100936.50;;;0.73;100.00
59859;BME280;45734;53.648;9.566;2022-11-18T14:28:53;100947.34;;;0.67;100.00
59859;BME280;45734;53.648;9.566;2022-11-18T14:34:20;100954.66;;;0.62;100.00
59859;BME280;45734;53.648;9.566;2022-11-18T14:39:31;100963.25;;;0.50;100.00
59859;BME280;45734;53.648;9.566;2022-11-18T14:44:32;100971.63;;;0.40;100.00
59859;BME280;45734;53.648;9.566;2022-11-18T14:49:32;100969.56;;;0.31;100.00
59859;BME280;45734;53.648;9.566;2022-11-18T14:54:33;100977.00;;;0.23;100.00
59859;BME280;45734;53.648;9.566;2022-11-18T14:59:33;100976.63;;;0.15;100.00
59859;BME280;45734;53.648;9.566;2022-11-18T15:04:33;100986.59;;;0.08;100.00
59859;BME280;45734;53.648;9.566;2022-11-18T15:09:33;100997.72;;;-0.03;100.00
59859;BME280;45734;53.648;9.566;2022-11-18T15:14:34;100998.38;;;-0.15;100.00
59859;BME280;45734;53.648;9.566;2022-11-18T15:19:34;101000.00;;;-0.28;100.00
59859;BME280;45734;53.648;9.566;2022-11-18T15:24:36;101001.34;;;-0.37;100.00
59859;BME280;45734;53.648;9.566;2022-11-18T15:29:36;101002.72;;;-0.46;100.00
59859;BME280;45734;53.648;9.566;2022-11-18T15:34:36;101010.91;;;-0.52;100.00
59859;BME280;45734;53.648;9.566;2022-11-18T15:39:37;101019.41;;;-0.64;100.00
59859;BME280;45734;53.648;9.566;2022-11-18T15:44:37;101027.91;;;-0.76;100.00
59859;BME280;45734;53.648;9.566;2022-11-18T15:49:37;101031.34;;;-0.92;100.00
59859;BME280;45734;53.648;9.566;2022-11-18T15:54:42;101026.22;;;-1.10;100.00
59859;BME280;45734;53.648;9.566;2022-11-18T15:59:42;101033.63;;;-1.36;100.00
59859;BME280;45734;53.648;9.566;2022-11-18T16:04:43;101033.78;;;-1.56;100.00
59859;BME280;45734;53.648;9.566;2022-11-18T16:09:43;101049.06;;;-1.66;100.00
59859;BME280;45734;53.648;9.566;2022-11-18T16:15:02;101051.22;;;-1.74;100.00
59859;BME280;45734;53.648;9.566;2022-11-18T16:20:22;101065.31;;;-1.78;100.00
59859;BME280;45734;53.648;9.566;2022-11-18T16:25:23;101067.59;;;-1.90;100.00
59859;BME280;45734;53.648;9.566;2022-11-18T16:30:23;101080.16;;;-1.98;100.00
59859;BME280;45734;53.648;9.566;2022-11-18T16:35:46;101090.22;;;-2.08;100.00
59859;BME280;45734;53.648;9.566;2022-11-18T16:40:54;101098.53;;;-2.18;100.00
59859;BME280;45734;53.648;9.566;2022-11-18T16:45:54;101100.88;;;-2.31;100.00
59859;BME280;45734;53.648;9.566;2022-11-18T16:51:16;101112.44;;;-2.37;100.00
59859;BME280;45734;53.648;9.566;2022-11-18T16:56:17;101105.38;;;-2.35;100.00
59859;BME280;45734;53.648;9.566;2022-11-18T17:01:18;101104.41;;;-2.32;100.00
59859;BME280;45734;53.648;9.566;2022-11-18T17:06:19;101108.78;;;-2.33;100.00
59859;BME280;45734;53.648;9.566;2022-11-18T17:11:20;101106.09;;;-2.31;100.00
59859;BME280;45734;53.648;9.566;2022-11-18T17:16:20;101117.22;;;-2.28;100.00
59859;BME280;45734;53.648;9.566;2022-11-18T17:21:21;101117.53;;;-2.15;100.00
59859;BME280;45734;53.648;9.566;2022-11-18T17:26:26;101130.94;;;-2.03;100.00
59859;BME280;45734;53.648;9.566;2022-11-18T17:31:27;101140.16;;;-1.96;100.00
59859;BME280;45734;53.648;9.566;2022-11-18T17:36:27;101136.22;;;-2.05;100.00
59859;BME280;45734;53.648;9.566;2022-11-18T17:41:29;101133.53;;;-2.22;100.00
59859;BME280;45734;53.648;9.566;2022-11-18T17:46:47;101144.78;;;-2.41;100.00
59859;BME280;45734;53.648;9.566;2022-11-18T17:51:48;101145.31;;;-2.53;100.00
59859;BME280;45734;53.648;9.566;2022-11-18T17:56:50;101139.53;;;-2.60;100.00
59859;BME280;45734;53.648;9.566;2022-11-18T18:01:53;101150.81;;;-2.59;100.00
59859;BME280;45734;53.648;9.566;2022-11-18T18:06:53;101163.97;;;-2.62;100.00
59859;BME280;45734;53.648;9.566;2022-11-18T18:11:54;101170.38;;;-2.49;100.00
59859;BME280;45734;53.648;9.566;2022-11-18T18:16:54;101181.06;;;-2.35;100.00
59859;BME280;45734;53.648;9.566;2022-11-18T18:21:55;101187.91;;;-2.53;100.00
59859;BME280;45734;53.648;9.566;2022-11-18T18:26:55;101197.25;;;-2.67;100.00
59859;BME280;45734;53.648;9.566;2022-11-18T18:31:55;101197.56;;;-2.75;100.00
59859;BME280;45734;53.648;9.566;2022-11-18T18:36:56;101193.16;;;-2.73;100.00
59859;BME280;45734;53.648;9.566;2022-11-18T18:41:56;101196.19;;;-2.63;100.00
59859;BME280;45734;53.648;9.566;2022-11-18T18:46:59;101203.88;;;-2.60;100.00
59859;BME280;45734;53.648;9.566;2022-11-18T18:51:59;101209.25;;;-2.63;100.00
59859;BME280;45734;53.648;9.566;2022-11-18T18:56:59;101216.47;;;-2.70;100.00
59859;BME280;45734;53.648;9.566;2022-11-18T19:02:02;101201.69;;;-2.69;100.00
59859;BME280;45734;53.648;9.566;2022-11-18T19:07:02;101222.59;;;-2.71;100.00
59859;BME280;45734;53.648;9.566;2022-11-18T19:12:03;101227.88;;;-2.72;100.00
59859;BME280;45734;53.648;9.566;2022-11-18T19:17:22;101233.50;;;-2.61;100.00
59859;BME280;45734;53.648;9.566;2022-11-18T19:22:23;101237.53;;;-2.54;100.00
59859;BME280;45734;53.648;9.566;2022-11-18T19:27:23;101230.63;;;-2.55;100.00
59859;BME280;45734;53.648;9.566;2022-11-18T19:32:23;101227.31;;;-2.59;100.00
59859;BME280;45734;53.648;9.566;2022-11-18T19:37:24;101228.28;;;-2.61;100.00
59859;BME280;45734;53.648;9.566;2022-11-18T19:42:25;101241.72;;;-2.50;100.00
59859;BME280;45734;53.648;9.566;2022-11-18T19:47:25;101255.41;;;-2.45;100.00
59859;BME280;45734;53.648;9.566;2022-11-18T19:52:25;101256.59;;;-2.52;100.00
59859;BME280;45734;53.648;9.566;2022-11-18T19:57:26;101263.16;;;-2.64;100.00
59859;BME280;45734;53.648;9.566;2022-11-18T20:02:26;101279.91;;;-2.69;100.00
59859;BME280;45734;53.648;9.566;2022-11-18T20:07:26;101288.00;;;-2.76;100.00
59859;BME280;45734;53.648;9.566;2022-11-18T20:12:27;101284.84;;;-2.84;100.00
59859;BME280;45734;53.648;9.566;2022-11-18T20:17:27;101289.38;;;-2.89;100.00
59859;BME280;45734;53.648;9.566;2022-11-18T20:22:28;101298.84;;;-2.86;100.00
59859;BME280;45734;53.648;9.566;2022-11-18T20:27:28;101299.56;;;-2.83;100.00
59859;BME280;45734;53.648;9.566;2022-11-18T20:32:28;101296.31;;;-2.88;100.00
59859;BME280;45734;53.648;9.566;2022-11-18T20:37:28;101304.59;;;-3.00;100.00
59859;BME280;45734;53.648;9.566;2022-11-18T20:42:29;101306.78;;;-3.11;100.00
59859;BME280;45734;53.648;9.566;2022-11-18T20:47:48;101307.25;;;-3.24;100.00
59859;BME280;45734;53.648;9.566;2022-11-18T20:52:48;101305.09;;;-3.34;100.00
59859;BME280;45734;53.648;9.566;2022-11-18T20:57:48;101314.75;;;-3.38;100.00
59859;BME280;45734;53.648;9.566;2022-11-18T21:02:49;101322.78;;;-3.44;100.00
59859;BME280;45734;53.648;9.566;2022-11-18T21:07:49;101342.50;;;-3.60;100.00
59859;BME280;45734;53.648;9.566;2022-11-18T21:12:52;101355.69;;;-3.65;100.00
59859;BME280;45734;53.648;9.566;2022-11-18T21:18:11;101358.44;;;-3.70;100.00
59859;BME280;45734;53.648;9.566;2022-11-18T21:23:11;101354.84;;;-3.66;100.00
59859;BME280;45734;53.648;9.566;2022-11-18T21:28:12;101360.78;;;-3.62;100.00
59859;BME280;45734;53.648;9.566;2022-11-18T21:33:12;101359.72;;;-3.56;100.00
59859;BME280;45734;53.648;9.566;2022-11-18T21:38:12;101369.28;;;-3.57;100.00
59859;BME280;45734;53.648;9.566;2022-11-18T21:43:12;101372.84;;;-3.59;100.00
59859;BME280;45734;53.648;9.566;2022-11-18T21:48:13;101383.50;;;-3.66;100.00
59859;BME280;45734;53.648;9.566;2022-11-18T21:53:13;101379.16;;;-3.67;100.00
59859;BME280;45734;53.648;9.566;2022-11-18T21:58:15;101392.34;;;-3.71;100.00
59859;BME280;45734;53.648;9.566;2022-11-18T22:03:15;101391.53;;;-3.72;100.00
59859;BME280;45734;53.648;9.566;2022-11-18T22:08:15;101397.69;;;-3.74;100.00
59859;BME280;45734;53.648;9.566;2022-11-18T22:13:16;101391.53;;;-3.72;100.00
59859;BME280;45734;53.648;9.566;2022-11-18T22:18:17;101389.66;;;-3.68;100.00
59859;BME280;45734;53.648;9.566;2022-11-18T22:23:17;101400.06;;;-3.68;100.00
59859;BME280;45734;53.648;9.566;2022-11-18T22:28:20;101399.22;;;-3.69;100.00
59859;BME280;45734;53.648;9.566;2022-11-18T22:33:20;101406.34;;;-3.74;100.00
59859;BME280;45734;53.648;9.566;2022-11-18T22:38:21;101410.13;;;-3.84;100.00
59859;BME280;45734;53.648;9.566;2022-11-18T22:43:21;101414.91;;;-3.95;100.00
59859;BME280;45734;53.648;9.566;2022-11-18T22:48:21;101409.13;;;-4.05;100.00
59859;BME280;45734;53.648;9.566;2022-11-18T22:53:21;101418.69;;;-4.05;100.00
59859;BME280;45734;53.648;9.566;2022-11-18T22:58:22;101420.25;;;-4.00;100.00
59859;BME280;45734;53.648;9.566;2022-11-18T23:03:23;101425.59;;;-4.04;100.00
59859;BME280;45734;53.648;9.566;2022-11-18T23:08:24;101420.09;;;-4.22;100.00
59859;BME280;45734;53.648;9.566;2022-11-18T23:13:25;101433.03;;;-4.19;100.00
59859;BME280;45734;53.648;9.566;2022-11-18T23:18:44;101431.50;;;-4.26;100.00
59859;BME280;45734;53.648;9.566;2022-11-18T23:23:45;101442.84;;;-4.28;100.00
59859;BME280;45734;53.648;9.566;2022-11-18T23:28:46;101449.50;;;-4.20;100.00
59859;BME280;45734;53.648;9.566;2022-11-18T23:33:46;101447.63;;;-4.15;100.00
59859;BME280;45734;53.648;9.566;2022-11-18T23:38:47;101447.72;;;-4.18;100.00
59859;BME280;45734;53.648;9.566;2022-11-18T23:43:48;101451.50;;;-4.28;100.00
59859;BME280;45734;53.648;9.566;2022-11-18T23:48:48;101457.06;;;-4.39;100.00
59859;BME280;45734;53.648;9.566;2022-11-18T23:53:56;101455.44;;;-4.43;100.00
59859;BME280;45734;53.648;9.566;2022-11-18T23:58:56;101446.09;;;-4.48;100.00
